Mytholmroyd, United Kingdom
Current Conditions -  °F | °C
As of 9:50 PM on Thursday 18 Dec 2014 (Local Time) from EGNM Reporting Station
Light Rain Light Rain  
Wind Chill: 39°   Ceiling: 1200
Heat Index: 46°   Visibility: 4mi
Dew Point: 45°   Wind: 22mph
Humidity: 93%   Direction: 280°W
Pressure: 29.59"   Gusts: NA
Location:  53.73°N, 1.98°W
Report Text: EGNM 182150Z 28019KT 6000 -RA SCT007 BKN012 08/07 Q1002
Loading
Personal Weather Stations






























Interactive Weather Map New forecast layout! Learn more

10-Day Weather Forecast

Advertisements
Track Severe Weather on mobile